Main page
METAR-TAF:

METAR-TAF

Airports :

RAF Waddington

Waddington, England

latitude: 53-10N, longitude: 000-31W, elevation: 68 m

Current weather observation

The report was made 29 minutes ago, at 17:50 UTC
Wind 3 kt from the West/Southwest
Temperature 24°C
Humidity 50%
Pressure 1018 hPa
Visibility 10 km or more
Few clouds at a height of 4300 ft

METAR: EGXW 231750Z 24003KT 9999 FEW043 24/13 Q1018 NOSIG RMK BLU BLU

Time: 19:19 (18:19 UTC)

Forecast

The report was made 1 hour and 49 minutes ago, at 16:30 UTC
Forecast valid from 23 at 18 UTC to 24 at 12 UTC
Wind 7 kt from the Southwest
Visibility 10 km or more
Few clouds at a height of 4000 ft

TAF: EGXW 231630Z 2318/2412 22007KT 9999 FEW040

Weather observations and forecasts of more than 4000 airports (METAR and TAF reports).

The available stations are represented by yellow and red dots on the map.

Hover mouse over dot to see the name of the station.

Then click to see weather observations and forecasts.

To change the map : click on the green buttons with a black cross to zoom in, on the green button with a dash to zoom out, or on the green arrows for adjacent maps.


METAR-TAF: